createdAt,value
2023-03-24T00:01:08.581Z,22.75
2023-03-24T00:07:14.465Z,22.77
2023-03-24T00:13:16.327Z,22.60
2023-03-24T00:19:19.416Z,22.48
2023-03-24T00:25:23.122Z,22.66
2023-03-24T00:31:25.158Z,22.65
2023-03-24T00:37:26.821Z,22.67
2023-03-24T00:43:29.139Z,22.56
2023-03-24T00:49:44.182Z,22.48
2023-03-24T00:55:48.799Z,22.53
2023-03-24T01:01:50.868Z,22.37
2023-03-24T01:07:55.720Z,22.48
2023-03-24T01:13:57.928Z,22.50
2023-03-24T01:20:06.893Z,22.51
2023-03-24T01:26:09.993Z,22.52
2023-03-24T01:32:11.797Z,22.34
2023-03-24T01:38:14.064Z,22.22
2023-03-24T01:44:33.611Z,22.26
2023-03-24T01:50:35.326Z,22.29
2023-03-24T01:56:41.868Z,22.30
2023-03-24T02:02:48.677Z,22.31
2023-03-24T02:08:54.912Z,22.21
2023-03-24T02:14:57.111Z,22.02
2023-03-24T02:20:58.606Z,21.98
2023-03-24T02:27:03.046Z,21.88
2023-03-24T02:33:16.879Z,22.00
2023-03-24T02:39:29.294Z,21.98
2023-03-24T02:45:44.730Z,22.00
2023-03-24T02:51:57.892Z,22.03
2023-03-24T02:58:11.025Z,22.08
2023-03-24T03:04:32.314Z,21.99
2023-03-24T03:10:43.253Z,21.98
2023-03-24T03:16:59.203Z,21.97
2023-03-24T03:23:05.123Z,21.99
2023-03-24T03:29:21.280Z,21.97
2023-03-24T03:36:00.339Z,21.90
2023-03-24T03:42:02.876Z,21.85
2023-03-24T03:48:05.260Z,21.81
2023-03-24T03:54:10.117Z,21.91
2023-03-24T04:00:16.416Z,21.69
2023-03-24T04:06:53.184Z,21.39
2023-03-24T04:13:13.808Z,21.82
2023-03-24T04:20:11.542Z,21.74
2023-03-24T04:26:28.034Z,21.66
2023-03-24T04:32:46.318Z,21.63
2023-03-24T04:38:52.516Z,21.58
2023-03-24T04:45:05.683Z,21.52
2023-03-24T04:51:21.644Z,21.56
2023-03-24T04:57:34.624Z,21.53
2023-03-24T05:03:41.527Z,21.51
2023-03-24T05:09:43.260Z,21.53
2023-03-24T05:15:46.099Z,21.33
2023-03-24T05:22:08.074Z,21.12
2023-03-24T05:28:09.626Z,21.22
2023-03-24T05:34:11.091Z,21.25
2023-03-24T05:40:22.655Z,21.19
2023-03-24T05:46:44.489Z,21.39
2023-03-24T05:52:45.974Z,21.42
2023-03-24T05:59:05.119Z,21.57
2023-03-24T06:05:47.102Z,21.59
2023-03-24T06:11:49.531Z,21.54
2023-03-24T06:17:55.090Z,21.58
2023-03-24T06:24:07.076Z,21.64
2023-03-24T06:30:10.376Z,21.80
2023-03-24T06:36:12.822Z,21.88
2023-03-24T06:42:17.919Z,22.04
2023-03-24T06:48:19.737Z,22.32
2023-03-24T06:54:21.643Z,22.47
2023-03-24T07:00:25.132Z,22.77
2023-03-24T07:06:58.647Z,22.74
2023-03-24T07:13:07.367Z,22.82
2023-03-24T07:19:09.675Z,23.04
2023-03-24T07:25:13.612Z,23.44
2023-03-24T07:31:22.262Z,23.84
2023-03-24T07:37:27.906Z,24.00
2023-03-24T07:43:29.785Z,24.10
2023-03-24T07:49:53.237Z,24.71
2023-03-24T07:55:57.231Z,24.66
2023-03-24T08:02:00.187Z,24.86
2023-03-24T08:08:24.108Z,25.12
2023-03-24T08:14:26.309Z,25.24
2023-03-24T08:20:28.895Z,25.58
2023-03-24T08:26:34.377Z,25.77
2023-03-24T08:32:36.211Z,25.78
2023-03-24T08:38:40.404Z,26.01
2023-03-24T08:44:41.938Z,26.00
2023-03-24T08:50:43.614Z,26.08
2023-03-24T08:56:47.696Z,26.34
2023-03-24T09:02:53.234Z,26.57
2023-03-24T09:08:54.972Z,26.61
2023-03-24T09:14:56.510Z,26.82
2023-03-24T09:20:58.038Z,27.22
2023-03-24T09:26:59.701Z,27.46
2023-03-24T09:33:01.735Z,28.09
2023-03-24T09:39:03.329Z,28.39
2023-03-24T09:45:20.735Z,28.61
2023-03-24T09:51:27.537Z,29.22
2023-03-24T09:57:35.922Z,29.59
2023-03-24T10:03:37.859Z,29.74
2023-03-24T10:09:39.935Z,29.75
2023-03-24T10:15:48.459Z,30.20
2023-03-24T10:22:16.337Z,30.45
2023-03-24T10:28:39.424Z,30.30
2023-03-24T10:34:43.921Z,30.72
2023-03-24T10:40:47.154Z,30.81
2023-03-24T10:46:52.961Z,30.46
2023-03-24T10:52:55.342Z,30.54
2023-03-24T10:58:57.158Z,30.39
2023-03-24T11:05:13.707Z,30.01
2023-03-24T11:11:33.735Z,30.31
2023-03-24T11:17:35.461Z,30.19
2023-03-24T11:23:44.076Z,30.29
2023-03-24T11:29:51.126Z,30.65
2023-03-24T11:35:59.303Z,29.99
2023-03-24T11:42:11.383Z,30.40
2023-03-24T11:48:41.239Z,29.88
2023-03-24T11:54:43.618Z,30.13
2023-03-24T12:00:55.237Z,29.72
2023-03-24T12:07:15.788Z,30.15
2023-03-24T12:13:39.204Z,30.14
2023-03-24T12:19:43.820Z,30.41
2023-03-24T12:25:55.540Z,30.50
2023-03-24T12:32:36.844Z,30.65
2023-03-24T12:39:09.221Z,30.92
2023-03-24T12:45:22.027Z,31.14
2023-03-24T12:51:52.781Z,31.39
2023-03-24T12:57:59.868Z,31.34
2023-03-24T13:04:10.270Z,31.31
2023-03-24T13:10:14.774Z,31.38
2023-03-24T13:16:22.603Z,31.29
2023-03-24T13:22:24.729Z,31.04
2023-03-24T13:28:35.666Z,30.76
2023-03-24T13:34:40.685Z,30.30
2023-03-24T13:40:42.974Z,29.91
2023-03-24T13:47:19.025Z,29.79
2023-03-24T13:53:36.839Z,29.87
2023-03-24T13:59:41.160Z,29.66
2023-03-24T14:06:00.501Z,29.59
2023-03-24T14:12:02.519Z,29.74
2023-03-24T14:18:24.251Z,29.70
2023-03-24T14:24:28.831Z,29.71
2023-03-24T14:30:31.247Z,29.62
2023-03-24T14:36:42.102Z,29.34
2023-03-24T14:42:43.625Z,29.02
2023-03-24T14:49:23.624Z,29.03
2023-03-24T14:55:26.419Z,28.97
2023-03-24T15:01:37.452Z,29.01
2023-03-24T15:07:39.845Z,28.93
2023-03-24T15:13:52.767Z,29.02
2023-03-24T15:19:54.707Z,29.02
2023-03-24T15:25:56.510Z,28.89
2023-03-24T15:31:58.233Z,28.56
2023-03-24T15:38:00.049Z,28.69
2023-03-24T15:44:07.553Z,28.58
2023-03-24T15:50:35.471Z,28.38
2023-03-24T15:56:37.504Z,28.35
2023-03-24T16:02:42.718Z,28.24
2023-03-24T16:08:45.887Z,28.08
2023-03-24T16:14:47.437Z,28.03
2023-03-24T16:20:51.307Z,27.95
2023-03-24T16:26:53.208Z,27.85
2023-03-24T16:32:55.012Z,27.60
2023-03-24T16:38:58.290Z,27.54
2023-03-24T16:45:00.572Z,27.28
2023-03-24T16:51:02.598Z,27.17
2023-03-24T16:57:04.284Z,26.84
2023-03-24T17:03:06.350Z,26.96
2023-03-24T17:09:09.323Z,26.05
2023-03-24T17:15:26.154Z,26.14
2023-03-24T17:21:28.351Z,25.98
2023-03-24T17:27:30.334Z,25.58
2023-03-24T17:33:36.027Z,25.48
2023-03-24T17:39:38.504Z,25.45
2023-03-24T17:45:40.933Z,25.60
2023-03-24T17:51:42.503Z,25.26
2023-03-24T17:57:44.653Z,24.70
2023-03-24T18:03:49.092Z,24.60
2023-03-24T18:09:51.314Z,24.29
2023-03-24T18:15:54.786Z,24.53
2023-03-24T18:21:56.367Z,24.57
2023-03-24T18:28:00.690Z,24.63
2023-03-24T18:34:05.764Z,24.50
2023-03-24T18:40:08.664Z,24.34
2023-03-24T18:46:10.967Z,23.92
2023-03-24T18:52:17.278Z,23.90
2023-03-24T18:58:24.820Z,24.01
2023-03-24T19:04:28.921Z,23.84
2023-03-24T19:10:34.969Z,23.79
2023-03-24T19:16:44.009Z,23.61
2023-03-24T19:22:47.089Z,23.46
2023-03-24T19:28:48.992Z,23.08
2023-03-24T19:34:50.892Z,22.92
2023-03-24T19:40:55.579Z,23.26
2023-03-24T19:46:58.587Z,22.96
2023-03-24T19:53:00.397Z,22.85
2023-03-24T19:59:04.327Z,22.98
2023-03-24T20:05:09.584Z,22.84
2023-03-24T20:11:11.752Z,22.54
2023-03-24T20:17:18.716Z,22.55
2023-03-24T20:23:21.596Z,22.35
2023-03-24T20:29:23.353Z,22.65
2023-03-24T20:35:27.244Z,22.43
2023-03-24T20:41:28.971Z,22.53
2023-03-24T20:47:30.939Z,22.63
2023-03-24T20:53:34.112Z,22.47
2023-03-24T20:59:37.445Z,22.15
2023-03-24T21:05:39.106Z,22.27
2023-03-24T21:11:40.580Z,22.41
2023-03-24T21:17:42.445Z,22.53
2023-03-24T21:23:44.387Z,22.17
2023-03-24T21:29:46.100Z,22.23
2023-03-24T21:35:47.941Z,22.20
2023-03-24T21:41:51.659Z,22.15
2023-03-24T21:47:54.321Z,22.07
2023-03-24T21:53:56.049Z,22.07
2023-03-24T21:59:58.642Z,22.10
2023-03-24T22:06:00.349Z,21.90
2023-03-24T22:12:01.826Z,21.77
2023-03-24T22:18:03.603Z,21.71
2023-03-24T22:24:05.841Z,21.73
2023-03-24T22:30:11.386Z,21.66
2023-03-24T22:36:12.869Z,21.81
2023-03-24T22:42:15.324Z,21.83
2023-03-24T22:48:17.088Z,21.84
2023-03-24T22:54:18.664Z,21.51
2023-03-24T23:00:20.557Z,21.19
2023-03-24T23:06:22.131Z,21.00
2023-03-24T23:12:24.366Z,20.58
2023-03-24T23:18:25.833Z,20.52
2023-03-24T23:24:28.082Z,20.20
2023-03-24T23:30:29.650Z,20.05
2023-03-24T23:36:33.404Z,19.98
2023-03-24T23:42:36.498Z,19.96
2023-03-24T23:48:38.000Z,19.89
2023-03-24T23:54:39.684Z,19.76
